sensor_id;sensor_type;location;lat;lon;timestamp;pressure;altitude;pressure_sealevel;temperature;humidity
71504;BME280;59323;50.874;7.028;2023-04-27T00:00:03;101529.44;;;7.17;70.54
71504;BME280;59323;50.874;7.028;2023-04-27T00:02:32;101530.56;;;7.16;70.58
71504;BME280;59323;50.874;7.028;2023-04-27T00:04:57;101524.34;;;7.15;70.59
71504;BME280;59323;50.874;7.028;2023-04-27T00:07:23;101532.75;;;7.14;70.18
71504;BME280;59323;50.874;7.028;2023-04-27T00:09:48;101525.28;;;7.11;70.77
71504;BME280;59323;50.874;7.028;2023-04-27T00:12:13;101534.19;;;7.11;70.08
71504;BME280;59323;50.874;7.028;2023-04-27T00:14:39;101534.97;;;7.12;70.94
71504;BME280;59323;50.874;7.028;2023-04-27T00:17:04;101532.13;;;7.08;70.57
71504;BME280;59323;50.874;7.028;2023-04-27T00:19:29;101536.75;;;7.08;70.36
71504;BME280;59323;50.874;7.028;2023-04-27T00:21:55;101525.63;;;7.00;71.39
71504;BME280;59323;50.874;7.028;2023-04-27T00:24:22;101533.72;;;7.00;69.70
71504;BME280;59323;50.874;7.028;2023-04-27T00:26:47;101536.44;;;7.00;70.64
71504;BME280;59323;50.874;7.028;2023-04-27T00:29:13;101535.97;;;6.98;71.20
71504;BME280;59323;50.874;7.028;2023-04-27T00:31:38;101544.38;;;6.97;70.58
71504;BME280;59323;50.874;7.028;2023-04-27T00:34:03;101538.03;;;6.93;71.01
71504;BME280;59323;50.874;7.028;2023-04-27T00:36:29;101547.09;;;6.97;71.28
71504;BME280;59323;50.874;7.028;2023-04-27T00:38:54;101540.75;;;6.93;71.19
71504;BME280;59323;50.874;7.028;2023-04-27T00:41:19;101543.28;;;6.98;69.11
71504;BME280;59323;50.874;7.028;2023-04-27T00:43:47;101538.66;;;6.90;68.64
71504;BME280;59323;50.874;7.028;2023-04-27T00:46:13;101546.47;;;6.91;69.19
71504;BME280;59323;50.874;7.028;2023-04-27T00:48:39;101539.78;;;6.89;68.93
71504;BME280;59323;50.874;7.028;2023-04-27T00:51:05;101541.69;;;6.88;69.56
71504;BME280;59323;50.874;7.028;2023-04-27T00:53:31;101547.41;;;6.87;69.70
71504;BME280;59323;50.874;7.028;2023-04-27T00:55:57;101535.81;;;6.86;71.12
71504;BME280;59323;50.874;7.028;2023-04-27T00:58:23;101537.41;;;6.87;70.65
71504;BME280;59323;50.874;7.028;2023-04-27T01:00:48;101548.22;;;6.87;70.99
71504;BME280;59323;50.874;7.028;2023-04-27T01:03:15;101544.72;;;6.87;68.64
71504;BME280;59323;50.874;7.028;2023-04-27T01:05:41;101543.59;;;6.88;69.55
71504;BME280;59323;50.874;7.028;2023-04-27T01:08:06;101543.28;;;6.89;70.09
71504;BME280;59323;50.874;7.028;2023-04-27T01:10:31;101541.69;;;6.88;71.22
71504;BME280;59323;50.874;7.028;2023-04-27T01:12:57;101537.25;;;6.84;71.02
71504;BME280;59323;50.874;7.028;2023-04-27T01:15:22;101543.91;;;6.86;72.25
71504;BME280;59323;50.874;7.028;2023-04-27T01:17:47;101538.69;;;6.81;71.28
71504;BME280;59323;50.874;7.028;2023-04-27T01:20:13;101535.50;;;6.79;71.11
71504;BME280;59323;50.874;7.028;2023-04-27T01:22:39;101535.66;;;6.83;70.65
71504;BME280;59323;50.874;7.028;2023-04-27T01:25:05;101541.38;;;6.81;71.17
71504;BME280;59323;50.874;7.028;2023-04-27T01:27:32;101547.91;;;6.80;70.98
71504;BME280;59323;50.874;7.028;2023-04-27T01:29:57;101542.50;;;6.80;70.92
71504;BME280;59323;50.874;7.028;2023-04-27T01:32:22;101551.06;;;6.82;72.16
71504;BME280;59323;50.874;7.028;2023-04-27T01:34:48;101550.59;;;6.80;69.77
71504;BME280;59323;50.874;7.028;2023-04-27T01:37:13;101544.72;;;6.78;70.50
71504;BME280;59323;50.874;7.028;2023-04-27T01:39:39;101551.72;;;6.79;71.75
71504;BME280;59323;50.874;7.028;2023-04-27T01:42:05;101544.25;;;6.76;69.65
71504;BME280;59323;50.874;7.028;2023-04-27T01:44:30;101544.25;;;6.76;71.26
71504;BME280;59323;50.874;7.028;2023-04-27T01:46:56;101541.88;;;6.75;71.37
71504;BME280;59323;50.874;7.028;2023-04-27T01:49:21;101539.78;;;6.72;71.07
71504;BME280;59323;50.874;7.028;2023-04-27T01:51:47;101550.28;;;6.73;70.25
71504;BME280;59323;50.874;7.028;2023-04-27T01:54:12;101556.47;;;6.74;69.02
71504;BME280;59323;50.874;7.028;2023-04-27T01:56:38;101559.97;;;6.74;70.63
71504;BME280;59323;50.874;7.028;2023-04-27T01:59:03;101555.22;;;6.71;69.69
71504;BME280;59323;50.874;7.028;2023-04-27T02:01:28;101559.03;;;6.70;70.67
71504;BME280;59323;50.874;7.028;2023-04-27T02:03:55;101551.25;;;6.68;70.77
71504;BME280;59323;50.874;7.028;2023-04-27T02:06:21;101546.78;;;6.64;71.79
71504;BME280;59323;50.874;7.028;2023-04-27T02:08:46;101542.97;;;6.65;71.02
71504;BME280;59323;50.874;7.028;2023-04-27T02:11:11;101554.25;;;6.67;71.27
71504;BME280;59323;50.874;7.028;2023-04-27T02:13:37;101552.66;;;6.66;71.32
71504;BME280;59323;50.874;7.028;2023-04-27T02:16:02;101561.88;;;6.65;71.19
71504;BME280;59323;50.874;7.028;2023-04-27T02:18:29;101559.19;;;6.65;71.34
71504;BME280;59323;50.874;7.028;2023-04-27T02:20:56;101548.53;;;6.60;71.97
71504;BME280;59323;50.874;7.028;2023-04-27T02:23:22;101550.13;;;6.61;71.05
71504;BME280;59323;50.874;7.028;2023-04-27T02:25:47;101544.72;;;6.52;71.72
71504;BME280;59323;50.874;7.028;2023-04-27T02:28:13;101543.78;;;6.57;72.12
71504;BME280;59323;50.874;7.028;2023-04-27T02:30:38;101541.69;;;6.54;72.66
71504;BME280;59323;50.874;7.028;2023-04-27T02:33:03;101555.69;;;6.56;72.33
71504;BME280;59323;50.874;7.028;2023-04-27T02:35:29;101545.84;;;6.51;72.95
71504;BME280;59323;50.874;7.028;2023-04-27T02:37:56;101555.22;;;6.54;71.59
71504;BME280;59323;50.874;7.028;2023-04-27T02:40:22;101552.03;;;6.52;71.99
71504;BME280;59323;50.874;7.028;2023-04-27T02:42:47;101555.31;;;6.49;72.02
71504;BME280;59323;50.874;7.028;2023-04-27T02:45:12;101556.13;;;6.49;72.50
71504;BME280;59323;50.874;7.028;2023-04-27T02:47:38;101558.03;;;6.49;71.94
71504;BME280;59323;50.874;7.028;2023-04-27T02:50:04;101543.09;;;6.43;71.88
71504;BME280;59323;50.874;7.028;2023-04-27T02:52:29;101555.66;;;6.47;72.55
71504;BME280;59323;50.874;7.028;2023-04-27T02:54:54;101545.16;;;6.46;73.14
71504;BME280;59323;50.874;7.028;2023-04-27T02:57:20;101534.69;;;6.44;72.36
71504;BME280;59323;50.874;7.028;2023-04-27T02:59:45;101543.88;;;6.43;72.58
71504;BME280;59323;50.874;7.028;2023-04-27T03:02:10;101536.41;;;6.40;72.14
71504;BME280;59323;50.874;7.028;2023-04-27T03:04:36;101535.78;;;6.34;72.45
71504;BME280;59323;50.874;7.028;2023-04-27T03:07:02;101542.78;;;6.35;72.50
71504;BME280;59323;50.874;7.028;2023-04-27T03:09:28;101536.41;;;6.31;72.87
71504;BME280;59323;50.874;7.028;2023-04-27T03:11:53;101531.47;;;6.25;71.70
71504;BME280;59323;50.874;7.028;2023-04-27T03:14:19;101530.53;;;6.21;72.14
71504;BME280;59323;50.874;7.028;2023-04-27T03:16:49;101530.34;;;6.17;72.29
71504;BME280;59323;50.874;7.028;2023-04-27T03:19:15;101533.06;;;6.17;72.67
71504;BME280;59323;50.874;7.028;2023-04-27T03:21:40;101534.78;;;6.13;72.52
71504;BME280;59323;50.874;7.028;2023-04-27T03:24:06;101536.22;;;6.11;72.38
71504;BME280;59323;50.874;7.028;2023-04-27T03:26:31;101541.44;;;6.07;72.45
71504;BME280;59323;50.874;7.028;2023-04-27T03:28:56;101547.47;;;6.04;72.46
71504;BME280;59323;50.874;7.028;2023-04-27T03:31:22;101535.72;;;6.00;73.28
71504;BME280;59323;50.874;7.028;2023-04-27T03:33:47;101537.47;;;5.96;72.99
71504;BME280;59323;50.874;7.028;2023-04-27T03:36:13;101539.19;;;5.92;72.60
71504;BME280;59323;50.874;7.028;2023-04-27T03:38:38;101537.72;;;5.86;72.92
71504;BME280;59323;50.874;7.028;2023-04-27T03:41:07;101544.81;;;5.82;73.04
71504;BME280;59323;50.874;7.028;2023-04-27T03:43:33;101546.53;;;5.78;74.27
71504;BME280;59323;50.874;7.028;2023-04-27T03:45:58;101544.78;;;5.73;74.07
71504;BME280;59323;50.874;7.028;2023-04-27T03:48:23;101544.13;;;5.67;74.34
71504;BME280;59323;50.874;7.028;2023-04-27T03:50:49;101540.16;;;5.65;74.04
71504;BME280;59323;50.874;7.028;2023-04-27T03:53:14;101546.47;;;5.60;74.17
71504;BME280;59323;50.874;7.028;2023-04-27T03:55:41;101545.31;;;5.53;74.46
71504;BME280;59323;50.874;7.028;2023-04-27T03:58:07;101554.03;;;5.50;74.54
71504;BME280;59323;50.874;7.028;2023-04-27T04:00:34;101559.25;;;5.46;74.57
71504;BME280;59323;50.874;7.028;2023-04-27T04:03:00;101554.28;;;5.39;75.36
71504;BME280;59323;50.874;7.028;2023-04-27T04:05:26;101549.97;;;5.30;75.39
71504;BME280;59323;50.874;7.028;2023-04-27T04:07:51;101558.03;;;5.30;75.75
71504;BME280;59323;50.874;7.028;2023-04-27T04:10:17;101568.66;;;5.26;75.98
71504;BME280;59323;50.874;7.028;2023-04-27T04:12:42;101560.16;;;5.19;75.93
71504;BME280;59323;50.874;7.028;2023-04-27T04:15:08;101571.88;;;5.15;76.16
71504;BME280;59323;50.874;7.028;2023-04-27T04:17:33;101570.59;;;5.12;76.04
71504;BME280;59323;50.874;7.028;2023-04-27T04:19:59;101573.09;;;5.08;76.80
71504;BME280;59323;50.874;7.028;2023-04-27T04:22:25;101572.72;;;5.01;76.67
71504;BME280;59323;50.874;7.028;2023-04-27T04:24:51;101565.38;;;4.93;76.28
71504;BME280;59323;50.874;7.028;2023-04-27T04:27:16;101578.84;;;4.93;76.32
71504;BME280;59323;50.874;7.028;2023-04-27T04:29:42;101582.94;;;4.91;76.70
71504;BME280;59323;50.874;7.028;2023-04-27T04:32:07;101586.25;;;4.88;76.46
71504;BME280;59323;50.874;7.028;2023-04-27T04:34:34;101579.88;;;4.84;76.73
71504;BME280;59323;50.874;7.028;2023-04-27T04:36:59;101579.41;;;4.82;76.92
71504;BME280;59323;50.874;7.028;2023-04-27T04:39:29;101578.91;;;4.80;77.39
71504;BME280;59323;50.874;7.028;2023-04-27T04:41:58;101588.38;;;4.77;77.84
71504;BME280;59323;50.874;7.028;2023-04-27T04:44:28;101594.88;;;4.76;77.31
71504;BME280;59323;50.874;7.028;2023-04-27T04:46:53;101582.94;;;4.68;77.62
71504;BME280;59323;50.874;7.028;2023-04-27T04:49:19;101594.69;;;4.72;78.30
71504;BME280;59323;50.874;7.028;2023-04-27T04:51:44;101589.28;;;4.72;78.15
71504;BME280;59323;50.874;7.028;2023-04-27T04:54:10;101591.69;;;4.74;78.45
71504;BME280;59323;50.874;7.028;2023-04-27T04:56:35;101591.38;;;4.75;78.16
71504;BME280;59323;50.874;7.028;2023-04-27T04:59:01;101589.78;;;4.74;78.11
71504;BME280;59323;50.874;7.028;2023-04-27T05:01:26;101589.00;;;4.74;78.40
71504;BME280;59323;50.874;7.028;2023-04-27T05:03:52;101590.59;;;4.75;79.04
71504;BME280;59323;50.874;7.028;2023-04-27T05:06:17;101598.66;;;4.75;78.83
71504;BME280;59323;50.874;7.028;2023-04-27T05:08:43;101601.25;;;4.80;78.55
71504;BME280;59323;50.874;7.028;2023-04-27T05:11:08;101597.44;;;4.81;78.66
71504;BME280;59323;50.874;7.028;2023-04-27T05:13:33;101604.13;;;4.84;78.55
71504;BME280;59323;50.874;7.028;2023-04-27T05:16:05;101615.06;;;4.87;78.91
71504;BME280;59323;50.874;7.028;2023-04-27T05:18:32;101613.38;;;4.91;78.08
71504;BME280;59323;50.874;7.028;2023-04-27T05:20:57;101611.97;;;4.94;77.41
71504;BME280;59323;50.874;7.028;2023-04-27T05:23:22;101611.97;;;4.94;78.07
71504;BME280;59323;50.874;7.028;2023-04-27T05:25:48;101606.75;;;4.97;77.96
71504;BME280;59323;50.874;7.028;2023-04-27T05:28:13;101608.13;;;5.08;78.27
71504;BME280;59323;50.874;7.028;2023-04-27T05:30:38;101614.16;;;5.28;77.93
71504;BME280;59323;50.874;7.028;2023-04-27T05:33:04;101617.25;;;5.44;76.56
71504;BME280;59323;50.874;7.028;2023-04-27T05:35:30;101619.94;;;5.66;75.56
71504;BME280;59323;50.874;7.028;2023-04-27T05:37:56;101625.72;;;5.82;74.25
71504;BME280;59323;50.874;7.028;2023-04-27T05:40:22;101623.81;;;6.04;74.54
71504;BME280;59323;50.874;7.028;2023-04-27T05:42:47;101625.16;;;6.24;73.34
71504;BME280;59323;50.874;7.028;2023-04-27T05:45:13;101628.38;;;6.44;72.36
71504;BME280;59323;50.874;7.028;2023-04-27T05:47:38;101623.19;;;6.56;72.66
71504;BME280;59323;50.874;7.028;2023-04-27T05:50:05;101622.72;;;6.71;72.25
71504;BME280;59323;50.874;7.028;2023-04-27T05:52:31;101639.09;;;6.83;71.47
71504;BME280;59323;50.874;7.028;2023-04-27T05:54:57;101637.69;;;6.94;71.10
71504;BME280;59323;50.874;7.028;2023-04-27T05:57:23;101639.13;;;7.00;68.45
71504;BME280;59323;50.874;7.028;2023-04-27T05:59:49;101629.91;;;7.02;68.09
71504;BME280;59323;50.874;7.028;2023-04-27T06:02:14;101636.75;;;7.16;68.51
71504;BME280;59323;50.874;7.028;2023-04-27T06:04:40;101639.28;;;7.30;67.55
71504;BME280;59323;50.874;7.028;2023-04-27T06:07:10;101628.63;;;7.42;67.76
71504;BME280;59323;50.874;7.028;2023-04-27T06:09:36;101630.63;;;7.62;67.87
71504;BME280;59323;50.874;7.028;2023-04-27T06:12:02;101637.44;;;7.77;67.12
71504;BME280;59323;50.874;7.028;2023-04-27T06:14:32;101642.50;;;7.96;66.40
71504;BME280;59323;50.874;7.028;2023-04-27T06:16:57;101644.66;;;8.11;66.20
71504;BME280;59323;50.874;7.028;2023-04-27T06:19:23;101649.34;;;8.32;64.73
71504;BME280;59323;50.874;7.028;2023-04-27T06:21:49;101656.66;;;8.48;63.24
71504;BME280;59323;50.874;7.028;2023-04-27T06:24:15;101641.94;;;8.58;62.98
71504;BME280;59323;50.874;7.028;2023-04-27T06:26:40;101648.22;;;8.71;62.49
71504;BME280;59323;50.874;7.028;2023-04-27T06:29:05;101652.53;;;8.93;61.97
71504;BME280;59323;50.874;7.028;2023-04-27T06:31:35;101657.09;;;9.01;60.10
71504;BME280;59323;50.874;7.028;2023-04-27T06:34:00;101657.03;;;9.09;59.91
71504;BME280;59323;50.874;7.028;2023-04-27T06:36:26;101657.03;;;9.30;59.79
71504;BME280;59323;50.874;7.028;2023-04-27T06:38:52;101646.06;;;9.27;58.09
71504;BME280;59323;50.874;7.028;2023-04-27T06:41:24;101659.00;;;9.42;58.44
71504;BME280;59323;50.874;7.028;2023-04-27T06:43:51;101656.66;;;9.52;58.16
71504;BME280;59323;50.874;7.028;2023-04-27T06:46:17;101658.72;;;9.56;57.25
71504;BME280;59323;50.874;7.028;2023-04-27T06:48:42;101661.66;;;9.63;56.65
71504;BME280;59323;50.874;7.028;2023-04-27T06:51:07;101651.59;;;9.63;56.77
71504;BME280;59323;50.874;7.028;2023-04-27T06:53:33;101660.84;;;9.83;56.59
71504;BME280;59323;50.874;7.028;2023-04-27T06:55:58;101654.31;;;9.96;55.88
71504;BME280;59323;50.874;7.028;2023-04-27T06:58:24;101646.63;;;10.10;55.51
71504;BME280;59323;50.874;7.028;2023-04-27T07:00:49;101648.69;;;10.26;56.05
71504;BME280;59323;50.874;7.028;2023-04-27T07:03:15;101647.09;;;10.37;54.62
71504;BME280;59323;50.874;7.028;2023-04-27T07:05:41;101648.81;;;10.54;53.65
71504;BME280;59323;50.874;7.028;2023-04-27T07:08:06;101644.25;;;10.82;54.21
71504;BME280;59323;50.874;7.028;2023-04-27T07:10:32;101645.00;;;10.95;54.34
71504;BME280;59323;50.874;7.028;2023-04-27T07:12:57;101640.25;;;11.32;53.84
71504;BME280;59323;50.874;7.028;2023-04-27T07:15:23;101644.41;;;11.41;51.35
71504;BME280;59323;50.874;7.028;2023-04-27T07:17:50;101645.31;;;11.61;52.07
71504;BME280;59323;50.874;7.028;2023-04-27T07:20:16;101638.56;;;11.83;51.02
71504;BME280;59323;50.874;7.028;2023-04-27T07:22:41;101643.91;;;12.11;52.17
71504;BME280;59323;50.874;7.028;2023-04-27T07:25:07;101640.75;;;12.09;50.01
71504;BME280;59323;50.874;7.028;2023-04-27T07:27:32;101641.09;;;12.23;50.33
71504;BME280;59323;50.874;7.028;2023-04-27T07:29:59;101639.69;;;12.45;49.52
71504;BME280;59323;50.874;7.028;2023-04-27T07:32:25;101634.75;;;12.35;49.28
71504;BME280;59323;50.874;7.028;2023-04-27T07:34:50;101638.25;;;12.51;49.50
71504;BME280;59323;50.874;7.028;2023-04-27T07:37:16;101641.88;;;12.75;49.30
71504;BME280;59323;50.874;7.028;2023-04-27T07:39:42;101627.47;;;12.93;48.38
71504;BME280;59323;50.874;7.028;2023-04-27T07:42:07;101643.81;;;13.09;46.29
71504;BME280;59323;50.874;7.028;2023-04-27T07:44:33;101636.63;;;13.01;46.19
71504;BME280;59323;50.874;7.028;2023-04-27T07:46:59;101642.16;;;13.05;46.32
71504;BME280;59323;50.874;7.028;2023-04-27T07:49:24;101633.44;;;12.99;45.85
71504;BME280;59323;50.874;7.028;2023-04-27T07:51:50;101628.53;;;12.69;45.36
71504;BME280;59323;50.874;7.028;2023-04-27T07:54:16;101629.13;;;12.79;46.16
71504;BME280;59323;50.874;7.028;2023-04-27T07:56:42;101623.09;;;12.89;46.40
71504;BME280;59323;50.874;7.028;2023-04-27T07:59:07;101637.41;;;13.01;45.55
71504;BME280;59323;50.874;7.028;2023-04-27T08:01:33;101630.16;;;13.09;46.11
71504;BME280;59323;50.874;7.028;2023-04-27T08:03:58;101626.31;;;13.29;47.20
71504;BME280;59323;50.874;7.028;2023-04-27T08:06:23;101628.94;;;13.45;45.05
71504;BME280;59323;50.874;7.028;2023-04-27T08:08:49;101626.41;;;13.56;44.84
71504;BME280;59323;50.874;7.028;2023-04-27T08:11:14;101623.78;;;13.82;45.04
71504;BME280;59323;50.874;7.028;2023-04-27T08:13:40;101623.81;;;13.63;43.79
71504;BME280;59323;50.874;7.028;2023-04-27T08:16:05;101619.97;;;13.45;42.54
71504;BME280;59323;50.874;7.028;2023-04-27T08:18:31;101611.19;;;13.55;43.91
71504;BME280;59323;50.874;7.028;2023-04-27T08:20:56;101617.19;;;13.64;43.13
71504;BME280;59323;50.874;7.028;2023-04-27T08:23:25;101617.47;;;13.78;42.05
71504;BME280;59323;50.874;7.028;2023-04-27T08:25:51;101614.84;;;13.85;42.28
71504;BME280;59323;50.874;7.028;2023-04-27T08:28:17;101609.69;;;14.03;42.31
71504;BME280;59323;50.874;7.028;2023-04-27T08:30:42;101607.72;;;14.04;40.34
71504;BME280;59323;50.874;7.028;2023-04-27T08:33:08;101600.78;;;14.10;40.56
71504;BME280;59323;50.874;7.028;2023-04-27T08:35:33;101600.84;;;14.13;40.65
71504;BME280;59323;50.874;7.028;2023-04-27T08:37:59;101610.22;;;14.12;40.58
71504;BME280;59323;50.874;7.028;2023-04-27T08:40:25;101610.97;;;14.36;40.69
71504;BME280;59323;50.874;7.028;2023-04-27T08:42:57;101604.44;;;14.17;39.55
71504;BME280;59323;50.874;7.028;2023-04-27T08:45:24;101598.66;;;14.45;41.94
71504;BME280;59323;50.874;7.028;2023-04-27T08:47:51;101595.38;;;14.63;40.61
71504;BME280;59323;50.874;7.028;2023-04-27T08:50:17;101596.06;;;14.86;40.49
71504;BME280;59323;50.874;7.028;2023-04-27T08:52:44;101595.66;;;15.17;41.15
71504;BME280;59323;50.874;7.028;2023-04-27T08:55:09;101595.28;;;15.19;38.78
71504;BME280;59323;50.874;7.028;2023-04-27T08:57:35;101595.06;;;15.35;39.57
71504;BME280;59323;50.874;7.028;2023-04-27T09:00:01;101589.56;;;15.68;40.55
71504;BME280;59323;50.874;7.028;2023-04-27T09:02:32;101608.56;;;15.91;40.19
71504;BME280;59323;50.874;7.028;2023-04-27T09:04:57;101593.31;;;15.97;38.89
71504;BME280;59323;50.874;7.028;2023-04-27T09:07:23;101597.31;;;16.07;37.13
71504;BME280;59323;50.874;7.028;2023-04-27T09:09:49;101597.25;;;16.00;38.07
71504;BME280;59323;50.874;7.028;2023-04-27T09:12:19;101587.50;;;16.06;37.50
71504;BME280;59323;50.874;7.028;2023-04-27T09:15:02;101589.47;;;16.05;37.49
71504;BME280;59323;50.874;7.028;2023-04-27T09:17:29;101590.22;;;16.02;37.43
71504;BME280;59323;50.874;7.028;2023-04-27T09:20:09;101591.59;;;16.26;37.71
71504;BME280;59323;50.874;7.028;2023-04-27T09:22:44;101582.75;;;16.54;37.90
71504;BME280;59323;50.874;7.028;2023-04-27T09:25:30;101575.31;;;16.58;36.16
71504;BME280;59323;50.874;7.028;2023-04-27T09:27:58;101573.34;;;16.59;37.00
71504;BME280;59323;50.874;7.028;2023-04-27T09:30:24;101577.38;;;16.72;36.67
71504;BME280;59323;50.874;7.028;2023-04-27T09:33:00;101579.75;;;16.77;36.39
71504;BME280;59323;50.874;7.028;2023-04-27T09:35:30;101573.34;;;16.59;37.30
71504;BME280;59323;50.874;7.028;2023-04-27T09:37:56;101572.94;;;16.53;36.36
71504;BME280;59323;50.874;7.028;2023-04-27T09:40:27;101570.13;;;16.42;36.76
71504;BME280;59323;50.874;7.028;2023-04-27T09:42:56;101573.06;;;16.12;36.25
71504;BME280;59323;50.874;7.028;2023-04-27T09:45:25;101577.25;;;15.96;37.68
71504;BME280;59323;50.874;7.028;2023-04-27T09:47:50;101558.97;;;16.14;37.47
71504;BME280;59323;50.874;7.028;2023-04-27T09:50:16;101564.91;;;16.23;35.94
71504;BME280;59323;50.874;7.028;2023-04-27T09:52:42;101566.03;;;16.15;37.79
71504;BME280;59323;50.874;7.028;2023-04-27T09:55:14;101562.78;;;15.99;36.44
71504;BME280;59323;50.874;7.028;2023-04-27T10:00:34;101562.28;;;16.37;37.20
71504;BME280;59323;50.874;7.028;2023-04-27T10:03:10;101563.22;;;16.66;37.66
71504;BME280;59323;50.874;7.028;2023-04-27T10:08:18;101557.69;;;15.97;34.98
71504;BME280;59323;50.874;7.028;2023-04-27T10:10:48;101556.78;;;15.79;38.08
71504;BME280;59323;50.874;7.028;2023-04-27T10:13:22;101550.28;;;16.01;36.60
71504;BME280;59323;50.874;7.028;2023-04-27T10:15:48;101547.13;;;15.99;35.74
71504;BME280;59323;50.874;7.028;2023-04-27T10:18:24;101547.09;;;15.96;37.27
71504;BME280;59323;50.874;7.028;2023-04-27T10:20:51;101542.97;;;15.68;36.52
71504;BME280;59323;50.874;7.028;2023-04-27T10:23:24;101543.28;;;15.60;37.29
71504;BME280;59323;50.874;7.028;2023-04-27T10:25:50;101542.50;;;15.59;37.02
71504;BME280;59323;50.874;7.028;2023-04-27T10:28:16;101535.97;;;15.71;36.57
71504;BME280;59323;50.874;7.028;2023-04-27T10:30:44;101530.59;;;15.89;37.36
71504;BME280;59323;50.874;7.028;2023-04-27T10:33:18;101527.56;;;16.04;36.29
71504;BME280;59323;50.874;7.028;2023-04-27T10:35:58;101533.94;;;16.19;35.96
71504;BME280;59323;50.874;7.028;2023-04-27T10:38:28;101525.09;;;16.47;37.36
71504;BME280;59323;50.874;7.028;2023-04-27T10:40:56;101520.03;;;16.60;37.39
71504;BME280;59323;50.874;7.028;2023-04-27T10:43:27;101525.53;;;16.56;37.65
71504;BME280;59323;50.874;7.028;2023-04-27T10:45:53;101514.63;;;16.70;35.35
71504;BME280;59323;50.874;7.028;2023-04-27T10:48:19;101521.69;;;16.68;36.67
71504;BME280;59323;50.874;7.028;2023-04-27T10:50:45;101520.03;;;16.60;36.36
71504;BME280;59323;50.874;7.028;2023-04-27T10:53:11;101513.38;;;16.61;37.59
71504;BME280;59323;50.874;7.028;2023-04-27T10:55:36;101509.91;;;16.71;38.18
71504;BME280;59323;50.874;7.028;2023-04-27T10:58:02;101510.63;;;16.61;35.68
71504;BME280;59323;50.874;7.028;2023-04-27T11:00:30;101511.50;;;16.72;37.86
71504;BME280;59323;50.874;7.028;2023-04-27T11:03:08;101508.78;;;16.86;37.74
71504;BME280;59323;50.874;7.028;2023-04-27T11:05:35;101511.19;;;16.98;36.63
71504;BME280;59323;50.874;7.028;2023-04-27T11:08:08;101504.09;;;16.90;37.29
71504;BME280;59323;50.874;7.028;2023-04-27T11:10:34;101508.50;;;17.23;37.58
71504;BME280;59323;50.874;7.028;2023-04-27T11:13:23;101501.81;;;17.28;35.43
71504;BME280;59323;50.874;7.028;2023-04-27T11:15:51;101497.91;;;17.25;35.43
71504;BME280;59323;50.874;7.028;2023-04-27T11:18:19;101502.22;;;17.26;35.80
71504;BME280;59323;50.874;7.028;2023-04-27T11:20:47;101491.63;;;17.32;35.94
71504;BME280;59323;50.874;7.028;2023-04-27T11:23:26;101487.31;;;17.34;36.20
71504;BME280;59323;50.874;7.028;2023-04-27T11:25:53;101489.28;;;17.59;34.92
71504;BME280;59323;50.874;7.028;2023-04-27T11:28:21;101491.25;;;17.76;36.50
71504;BME280;59323;50.874;7.028;2023-04-27T11:30:54;101489.28;;;17.87;36.07
71504;BME280;59323;50.874;7.028;2023-04-27T11:33:19;101489.31;;;17.77;35.47
71504;BME280;59323;50.874;7.028;2023-04-27T11:35:46;101476.34;;;17.81;35.89
71504;BME280;59323;50.874;7.028;2023-04-27T11:38:16;101486.91;;;17.96;35.71
71504;BME280;59323;50.874;7.028;2023-04-27T11:40:42;101482.16;;;18.08;34.71
71504;BME280;59323;50.874;7.028;2023-04-27T11:43:11;101478.22;;;18.12;34.98
71504;BME280;59323;50.874;7.028;2023-04-27T11:45:41;101481.75;;;18.13;35.29
71504;BME280;59323;50.874;7.028;2023-04-27T11:48:06;101483.31;;;18.14;36.16
71504;BME280;59323;50.874;7.028;2023-04-27T11:50:37;101481.84;;;17.77;34.01
71504;BME280;59323;50.874;7.028;2023-04-27T11:53:03;101469.25;;;17.62;35.96
71504;BME280;59323;50.874;7.028;2023-04-27T11:55:28;101470.41;;;17.47;34.53
71504;BME280;59323;50.874;7.028;2023-04-27T11:57:56;101463.34;;;17.46;35.42
71504;BME280;59323;50.874;7.028;2023-04-27T12:00:23;101459.03;;;17.48;34.42
71504;BME280;59323;50.874;7.028;2023-04-27T12:02:48;101461.41;;;17.39;35.24
71504;BME280;59323;50.874;7.028;2023-04-27T12:05:15;101458.66;;;17.18;34.14
71504;BME280;59323;50.874;7.028;2023-04-27T12:07:41;101447.66;;;17.03;34.46
71504;BME280;59323;50.874;7.028;2023-04-27T12:10:07;101447.28;;;17.12;36.28
71504;BME280;59323;50.874;7.028;2023-04-27T12:12:33;101450.81;;;17.20;36.53
71504;BME280;59323;50.874;7.028;2023-04-27T12:14:59;101459.03;;;17.34;37.06
71504;BME280;59323;50.874;7.028;2023-04-27T12:17:24;101457.47;;;17.40;35.61
71504;BME280;59323;50.874;7.028;2023-04-27T12:19:49;101458.25;;;17.40;35.95
71504;BME280;59323;50.874;7.028;2023-04-27T12:22:15;101449.63;;;17.28;36.20
71504;BME280;59323;50.874;7.028;2023-04-27T12:24:40;101443.75;;;17.19;38.40
71504;BME280;59323;50.874;7.028;2023-04-27T12:27:05;101444.91;;;17.32;37.11
71504;BME280;59323;50.874;7.028;2023-04-27T12:29:31;101434.31;;;17.48;36.17
71504;BME280;59323;50.874;7.028;2023-04-27T12:32:00;101442.53;;;17.55;36.89
71504;BME280;59323;50.874;7.028;2023-04-27T12:34:25;101437.06;;;17.62;35.48
71504;BME280;59323;50.874;7.028;2023-04-27T12:36:52;101439.44;;;17.74;36.36
71504;BME280;59323;50.874;7.028;2023-04-27T12:39:19;101433.13;;;17.78;36.70
71504;BME280;59323;50.874;7.028;2023-04-27T12:41:48;101433.91;;;17.78;37.01
71504;BME280;59323;50.874;7.028;2023-04-27T12:44:15;101437.44;;;17.89;37.06
71504;BME280;59323;50.874;7.028;2023-04-27T12:46:42;101431.88;;;18.03;36.04
71504;BME280;59323;50.874;7.028;2023-04-27T12:49:09;101440.50;;;18.13;36.72
71504;BME280;59323;50.874;7.028;2023-04-27T12:51:35;101440.13;;;18.07;35.56
71504;BME280;59323;50.874;7.028;2023-04-27T12:54:04;101443.25;;;18.05;34.75
71504;BME280;59323;50.874;7.028;2023-04-27T12:56:30;101433.88;;;17.89;35.30